createdAt,value
2017-06-30T22:09:08.520Z,5.70
2017-06-30T22:11:35.161Z,5.50
2017-06-30T22:14:01.795Z,5.83
2017-06-30T22:16:28.491Z,5.70
2017-06-30T22:18:55.155Z,6.93
2017-06-30T22:21:21.823Z,6.73
2017-06-30T22:23:48.482Z,8.03
2017-06-30T22:26:15.142Z,6.80
2017-06-30T22:28:41.804Z,7.33
2017-06-30T22:31:08.458Z,8.53
2017-06-30T22:33:35.107Z,10.60
2017-06-30T22:36:01.806Z,10.27
2017-06-30T22:38:28.487Z,10.90
2017-06-30T22:40:55.147Z,10.43
2017-06-30T22:43:21.816Z,10.77
2017-06-30T22:45:48.470Z,10.43
2017-06-30T22:48:15.150Z,10.37
2017-06-30T22:50:41.814Z,10.63
2017-06-30T22:53:08.468Z,11.33
2017-06-30T22:55:35.139Z,10.70
2017-06-30T22:58:01.796Z,10.50
2017-06-30T23:00:28.468Z,11.80
2017-06-30T23:02:55.443Z,10.37
2017-06-30T23:05:22.174Z,9.80
2017-06-30T23:07:48.860Z,10.47
2017-06-30T23:10:15.504Z,9.60
2017-06-30T23:12:42.212Z,10.30
2017-06-30T23:15:08.905Z,11.40
2017-06-30T23:17:35.567Z,10.93
2017-06-30T23:20:02.291Z,10.27
2017-06-30T23:22:28.966Z,10.57
2017-06-30T23:24:55.661Z,11.63
2017-06-30T23:27:22.344Z,11.40
2017-06-30T23:29:48.991Z,11.90
2017-06-30T23:32:15.635Z,11.00
2017-06-30T23:34:42.336Z,11.43
2017-06-30T23:37:08.995Z,11.47
2017-06-30T23:39:35.659Z,13.03
2017-06-30T23:42:02.348Z,14.53
2017-06-30T23:44:29.008Z,13.13
2017-06-30T23:46:55.666Z,16.10
2017-06-30T23:49:22.339Z,17.50
2017-06-30T23:51:48.989Z,16.87
2017-06-30T23:54:15.627Z,16.73
2017-06-30T23:56:42.288Z,17.57
2017-06-30T23:59:08.968Z,19.60
